• Join FlightAware (Why Join?)
  • Login
  • US Flag 
03:59AM EST


 

Airport Tracker/Info


-or-


 

Live Flight TrackerFlight Track Log ✈ DAL6115 ✈ 09-Apr-2013 ✈ KJFK - KROC

Flight Track Log - Related Links

Times and Time Zones

All times are in EDT time to prevent confusion due to time zone crossing. See the DAL6115 flight status page for this flight to view local times or setup timezone preferences in your user account.

Time Position Orientation Groundspeed Altitude Reporting Facility
EDT Latitude Longitude Course Direction KTS MPH feet Rate Location/Type
09:36AM 40.6000 -73.8000 143° Southeast 177 204 1,500  Level New York TRACON
09:37AM 40.5500 -73.7500 143° Southeast 277 319 3,900 2,040 Climbing New York TRACON
09:38AM 40.6000 -73.6500 57° Northeast 290 334 5,900 2,160 Climbing New York TRACON
09:39AM 40.6500 -73.5833 45° Northeast 295 339 8,100 2,340 Climbing New York TRACON
09:40AM 40.7333 -73.5667 North 280 322 10,600 1,980 Climbing New York TRACON
09:41AM 40.8167 -73.5500 North 295 339 12,300 1,680 Climbing New York TRACON
09:43AM 40.9500 -73.6333 335° Northwest 275 316 15,800 1,560 Climbing New York TRACON
09:44AM 40.9833 -73.7167 298° West 307 353 17,000 360 Climbing New York TRACON
09:46AM 41.0461 -73.9378 291° West 340 391 17,000  Level New York Center
09:47AM 41.0767 -74.0411 291° West 335 386 17,000  Level New York Center
09:48AM 41.1108 -74.1639 290° West 329 379 17,000  Level New York Center
09:49AM 41.1392 -74.2644 291° West 329 379 17,000 240 Level New York Center
09:50AM 41.1747 -74.3903 291° West 329 379 17,500 720 Climbing New York Center
09:51AM 41.2031 -74.4911 291° West 329 379 18,500 960 Climbing New York Center
09:52AM 41.2414 -74.5953 296° West 329 379 19,500 720 Climbing New York Center
09:53AM 41.3025 -74.6956 309° West 324 373 20,000 240 Climbing New York Center
09:54AM 41.3636 -74.8039 307° West 345 397 20,000  Level New York Center
09:55AM 41.4286 -74.9047 311° West 357 411 20,000  Level New York Center
09:56AM 41.4875 -75.0081 307° West 363 418 20,000  Level New York Center
09:57AM 41.5486 -75.1061 310° West 357 411 20,000  Level New York Center
09:58AM 41.5922 -75.2200 297° West 351 404 20,000  Level New York Center
09:59AM 41.6272 -75.3417 291° West 351 404 20,000  Level New York Center
10:00AM 41.6600 -75.4578 291° West 346 398 20,000  Level New York Center
10:01AM 41.6950 -75.5767 292° West 346 398 20,000  Level New York Center
10:02AM 41.7297 -75.6961 291° West 341 392 20,000  Level New York Center
10:03AM 41.7656 -75.8294 290° West 346 398 20,000  Level New York Center
10:04AM 41.8000 -75.9517 291° West 346 398 20,000  Level New York Center
10:05AM 41.8342 -76.0711 291° West 346 398 20,000  Level New York Center
10:06AM 41.8683 -76.1936 291° West 351 404 20,000  Level New York Center
10:07AM 41.9022 -76.3164 290° West 356 410 20,000  Level New York Center
10:08AM 41.9339 -76.4389 289° West 356 410 20,000 -360 Level New York Center
10:09AM 41.9675 -76.5617 290° West 356 410 19,300 -960 Descending New York Center
10:10AM 42.0031 -76.6847 291° West 356 410 18,200 -1,020 Descending New York Center
10:11AM 42.0367 -76.8050 291° West 356 410 17,300 -1,020 Descending New York Center
10:12AM 42.0678 -76.9308 288° West 356 410 16,200 -1,080 Descending New York Center
10:12AM 42.0847 -76.9764 297° West 371 427 16,000 -240 Descending Cleveland Center
10:13AM 42.1636 -77.0281 334° Northwest 389 448 15,900 -60 Descending Cleveland Center
10:14AM 42.2550 -77.0231 North 339 390 15,900  Level Cleveland Center
10:15AM 42.3444 -77.0094 North 318 366 15,900  Level Cleveland Center
10:16AM 42.4486 -77.0092 360° North 343 395 15,900 -540 Level Cleveland Center
10:17AM 42.5533 -77.0286 352° North 354 407 14,900 -1,200 Descending Cleveland Center
10:18AM 42.5989 -77.0825 319° Northwest 351 404 14,000 -1,380 Descending Cleveland Center
10:18AM 42.6289 -77.1119 324° Northwest 338 389 13,500 -1,440 Descending Cleveland Center
10:19AM 42.6764 -77.1603 323° Northwest 346 398 12,600 -1,500 Descending Cleveland Center
10:19AM 42.7119 -77.1694 349° North 338 389 12,000 -1,800 Descending Cleveland Center
10:20AM 42.7683 -77.1750 356° North 297 342 10,800 -1,500 Descending Cleveland Center
10:20AM 42.7936 -77.1792 353° North 309 356 10,500 -1,200 Descending Cleveland Center
10:21AM 42.8439 -77.1850 355° North 257 296 9,600 -1,440 Descending Cleveland Center
10:21AM 42.8647 -77.1894 351° North 283 326 9,100 -1,980 Descending Cleveland Center
10:22AM 42.9128 -77.1953 355° North 246 283 7,600 -2,040 Descending Cleveland Center
10:22AM 42.9381 -77.1997 353° North 262 302 7,100 -2,100 Descending Cleveland Center
10:23AM 42.9783 -77.2203 340° North 248 285 5,500 -2,100 Descending Cleveland Center
10:23AM 42.9992 -77.2247 351° North 246 283 5,000 -1,740 Descending Cleveland Center
10:24AM 43.0400 -77.2681 322° Northwest 232 267 3,600 -1,380 Descending Cleveland Center
10:25AM 43.0875 -77.3225 320° Northwest 202 232 2,600 -600 Descending Cleveland Center
10:26AM 43.1247 -77.3831 310° West 197 227 2,500 -180 Descending Cleveland Center
10:27AM 43.1281 -77.4342 275° West 184 212 2,300 -180 Descending Cleveland Center
10:28AM 43.1258 -77.5081 268° West 190 219 2,200 -240 Descending Cleveland Center
10:29AM 43.1256 -77.5736 270° West 168 193 1,900 -540 Descending Cleveland Center
10:30AM 43.1225 -77.6222 265° West 118 136 1,200 -720 Descending Cleveland Center